Time;durP1;ratioP1;P1;durP2;ratioP2;P2;SDS_P1;SDS_P2;PMS_P1;PMS_P2;Temp;Humidity;BMP_temperature;BMP_pressure;BME280_temperature;BME280_humidity;BME280_pressure;Samples;Min_cycle;Max_cycle;Signal;HPM_P1;HPM_P2
2023/04/16 00:01:14;;;;;;;;;10.00;10.00;;;;;-147.17;100.00;-10958.19;4978226;28;52692;-49
2023/04/16 00:03:40;;;;;;;;;11.00;10.00;;;;;-147.17;100.00;-11206.22;4978234;28;51699;-47
2023/04/16 00:06:06;;;;;;;;;10.75;9.75;;;;;-147.17;100.00;-10958.19;4975856;28;52815;-47
2023/04/16 00:08:31;;;;;;;;;8.25;8.25;;;;;-147.17;100.00;-10958.19;4962301;28;51390;-50
2023/04/16 00:10:56;;;;;;;;;8.75;8.75;;;;;-147.17;100.00;-11206.22;4976315;28;52808;-48
2023/04/16 00:13:22;;;;;;;;;10.75;10.50;;;;;-147.17;100.00;-11206.22;4976054;28;51637;-49
2023/04/16 00:15:47;;;;;;;;;8.75;8.50;;;;;-147.17;100.00;-11454.25;4977876;28;52122;-51
2023/04/16 00:18:13;;;;;;;;;10.50;10.00;;;;;-147.17;100.00;-11702.25;4975641;28;51493;-50
2023/04/16 00:20:38;;;;;;;;;10.50;9.75;;;;;-147.17;100.00;-11950.22;4976853;28;51398;-52
2023/04/16 00:23:03;;;;;;;;;10.25;8.75;;;;;-147.17;100.00;-11950.22;4978064;28;52896;-51
2023/04/16 00:25:29;;;;;;;;;10.50;9.50;;;;;-147.17;100.00;-11950.22;4977790;28;52570;-48
2023/04/16 00:27:54;;;;;;;;;11.00;10.00;;;;;-147.17;100.00;-12446.13;4974934;28;51293;-49
2023/04/16 00:30:21;;;;;;;;;8.25;8.00;;;;;-147.17;100.00;-12694.06;4978215;28;52529;-50
2023/04/16 00:32:46;;;;;;;;;8.50;8.00;;;;;-147.17;100.00;-12941.97;4976960;28;51821;-48
2023/04/16 00:35:12;;;;;;;;;8.00;8.00;;;;;-147.17;100.00;-12941.97;4973293;28;51318;-48
2023/04/16 00:37:37;;;;;;;;;9.75;8.75;;;;;-147.17;100.00;-12941.97;4977521;28;51251;-48
2023/04/16 00:40:03;;;;;;;;;10.75;10.00;;;;;-147.17;100.00;-12941.97;4978367;28;51284;-51
2023/04/16 00:42:28;;;;;;;;;9.00;8.00;;;;;-147.17;100.00;-13189.88;4977605;28;52484;-49
2023/04/16 00:44:54;;;;;;;;;8.25;8.00;;;;;-147.17;100.00;-13437.75;4975252;28;51774;-48
2023/04/16 00:47:20;;;;;;;;;15.00;11.75;;;;;-147.17;100.00;-13685.63;4976516;28;51259;-54
2023/04/16 00:49:46;;;;;;;;;8.75;7.50;;;;;-147.17;100.00;-14181.31;4977331;28;51187;-50
2023/04/16 00:52:11;;;;;;;;;10.00;10.00;;;;;-147.17;100.00;-14181.31;4972498;28;53188;-49
2023/04/16 00:54:37;;;;;;;;;9.50;9.00;;;;;-147.17;100.00;-14429.16;4975531;28;51495;-50
2023/04/16 00:57:02;;;;;;;;;10.25;10.25;;;;;-147.17;100.00;-14676.94;4962195;28;51297;-48
2023/04/16 00:59:28;;;;;;;;;11.50;10.50;;;;;-147.17;100.00;-14924.75;4961678;28;51419;-49
2023/04/16 01:01:53;;;;;;;;;10.25;10.25;;;;;-147.17;100.00;-15172.50;4959737;28;54590;-51
2023/04/16 01:04:19;;;;;;;;;13.25;10.75;;;;;-147.17;100.00;-15172.50;4976202;28;52074;-50
2023/04/16 01:06:45;;;;;;;;;10.00;9.50;;;;;-147.17;100.00;-15420.25;4977352;28;51401;-50
2023/04/16 01:09:13;;;;;;;;;9.25;8.75;;;;;-147.17;100.00;-15172.50;4977109;28;51360;-51
2023/04/16 01:11:38;;;;;;;;;9.50;9.25;;;;;-147.17;100.00;-15420.25;4978545;28;51879;-51
2023/04/16 01:14:04;;;;;;;;;11.00;10.50;;;;;-147.17;100.00;-15420.25;4975089;28;51225;-50
2023/04/16 01:16:31;;;;;;;;;9.00;9.00;;;;;-147.17;100.00;-15420.25;4975430;28;51214;-49
2023/04/16 01:18:57;;;;;;;;;11.75;8.25;;;;;-147.17;100.00;-15668.00;4977313;28;51760;-52
2023/04/16 01:21:22;;;;;;;;;8.00;8.00;;;;;-147.17;100.00;-15668.00;4975658;28;51926;-51
2023/04/16 01:23:47;;;;;;;;;9.00;9.00;;;;;-147.17;100.00;-15668.00;4962673;28;51370;-49
2023/04/16 01:26:13;;;;;;;;;10.75;10.00;;;;;-147.17;100.00;-15668.00;4976181;28;51315;-52
2023/04/16 01:28:39;;;;;;;;;9.75;9.50;;;;;-147.17;100.00;-15668.00;4976583;28;52964;-49
2023/04/16 01:31:04;;;;;;;;;9.75;8.25;;;;;-147.17;100.00;-15668.00;4964069;28;51916;-49
2023/04/16 01:33:30;;;;;;;;;10.25;8.00;;;;;-147.17;100.00;-15668.00;4975962;28;51200;-52
2023/04/16 01:35:55;;;;;;;;;13.75;11.25;;;;;-147.17;100.00;-15668.00;4975382;28;51400;-50
2023/04/16 01:38:20;;;;;;;;;11.00;10.75;;;;;-147.17;100.00;-15668.00;4978048;28;51400;-50
2023/04/16 01:40:46;;;;;;;;;7.50;7.50;;;;;-147.17;100.00;-15915.72;4974077;28;52141;-50
2023/04/16 01:43:11;;;;;;;;;10.75;10.00;;;;;-147.17;100.00;-15915.72;4977527;28;51310;-48
2023/04/16 01:45:37;;;;;;;;;8.75;8.75;;;;;-147.17;100.00;-15915.72;4975291;28;51136;-49
2023/04/16 01:48:03;;;;;;;;;7.75;7.00;;;;;-147.17;100.00;-15915.72;4977018;28;51321;-52
2023/04/16 01:50:29;;;;;;;;;9.25;8.75;;;;;-147.17;100.00;-15915.72;4974596;28;52024;-48
2023/04/16 01:52:55;;;;;;;;;8.00;8.00;;;;;-147.17;100.00;-15917.19;4975871;28;51670;-49
2023/04/16 01:55:20;;;;;;;;;6.50;6.50;;;;;-147.17;100.00;-15917.19;4976644;28;52066;-49
2023/04/16 01:57:46;;;;;;;;;11.00;11.00;;;;;-147.17;100.00;-15917.19;4976165;28;52466;-48
2023/04/16 02:00:11;;;;;;;;;9.00;7.50;;;;;-147.17;100.00;-15917.19;4974448;28;53507;-47
2023/04/16 02:02:37;;;;;;;;;11.25;9.75;;;;;-147.17;100.00;-15917.19;4976284;28;51528;-51
2023/04/16 02:05:02;;;;;;;;;9.75;9.00;;;;;-147.17;100.00;-15917.19;4975139;28;52752;-49
2023/04/16 02:07:30;;;;;;;;;13.50;10.25;;;;;-147.17;100.00;-15917.19;4978390;28;51389;-49
2023/04/16 02:09:56;;;;;;;;;10.25;9.75;;;;;-147.17;100.00;-15917.19;4975485;28;51775;-50
2023/04/16 02:12:22;;;;;;;;;8.00;7.75;;;;;-147.17;100.00;-15917.19;4977329;28;51261;-52
2023/04/16 02:14:47;;;;;;;;;11.50;10.75;;;;;-147.17;100.00;-15917.19;4977638;28;51845;-50
2023/04/16 02:17:14;;;;;;;;;14.00;11.75;;;;;-147.17;100.00;-15917.19;4976758;28;51349;-52
2023/04/16 02:19:39;;;;;;;;;8.75;8.00;;;;;-147.17;100.00;-15917.19;4974620;28;51873;-51
2023/04/16 02:22:05;;;;;;;;;9.75;9.00;;;;;-147.17;100.00;-15917.19;4974636;28;52881;-52
2023/04/16 02:24:30;;;;;;;;;11.25;11.00;;;;;-147.17;100.00;-15917.19;4975228;28;51477;-52
2023/04/16 02:26:55;;;;;;;;;12.75;12.00;;;;;-147.17;100.00;-15917.19;4973023;28;51096;-52
2023/04/16 02:29:21;;;;;;;;;10.25;9.25;;;;;-147.17;100.00;-15917.19;4974188;28;51514;-52
2023/04/16 02:31:47;;;;;;;;;10.75;9.25;;;;;-147.17;100.00;-15917.19;4974906;28;51393;-50
2023/04/16 02:34:13;;;;;;;;;11.25;11.25;;;;;-147.17;100.00;-15917.19;4975102;28;51906;-56
2023/04/16 02:36:38;;;;;;;;;10.25;9.75;;;;;-147.17;100.00;-15917.19;4973624;28;52513;-53
2023/04/16 02:39:04;;;;;;;;;11.75;11.75;;;;;-147.17;100.00;-15917.19;4973473;28;52242;-49
2023/04/16 02:41:32;;;;;;;;;11.50;11.00;;;;;-147.17;100.00;-15917.19;4974148;28;51271;-48
2023/04/16 02:43:57;;;;;;;;;14.25;12.50;;;;;-147.17;100.00;-15917.19;4955355;28;51218;-48
2023/04/16 02:46:22;;;;;;;;;14.25;11.50;;;;;-147.17;100.00;-15917.19;4973201;28;51271;-46
2023/04/16 02:48:48;;;;;;;;;11.25;11.25;;;;;-147.17;100.00;-15917.19;4974895;28;51917;-49
2023/04/16 02:51:13;;;;;;;;;13.25;13.00;;;;;-147.17;100.00;-15917.19;4975103;28;51916;-48
2023/04/16 02:53:38;;;;;;;;;11.75;10.00;;;;;-147.17;100.00;-15917.19;4973792;28;51121;-49
2023/04/16 02:56:05;;;;;;;;;13.00;12.50;;;;;-147.17;100.00;-15917.19;4973835;28;51958;-51
2023/04/16 02:58:30;;;;;;;;;10.50;9.00;;;;;-147.17;100.00;-15917.19;4974454;28;52963;-50
2023/04/16 03:00:56;;;;;;;;;12.75;11.25;;;;;-147.17;100.00;-15917.19;4974481;28;51907;-50
2023/04/16 03:03:21;;;;;;;;;13.50;13.00;;;;;-147.17;100.00;-15917.19;4961533;28;52518;-52
2023/04/16 03:05:47;;;;;;;;;17.00;13.00;;;;;-147.17;100.00;-15917.19;4976210;28;52416;-50
2023/04/16 03:08:13;;;;;;;;;11.25;11.00;;;;;-147.17;100.00;-15917.19;4974149;28;51715;-51
2023/04/16 03:10:38;;;;;;;;;14.25;13.50;;;;;-147.17;100.00;-15917.19;4981143;28;54084;-52
2023/04/16 03:13:04;;;;;;;;;11.00;10.25;;;;;-147.17;100.00;-15917.19;4976189;28;51834;-51
2023/04/16 03:15:30;;;;;;;;;12.50;11.50;;;;;-147.17;100.00;-15917.19;4980569;28;53212;-53
2023/04/16 03:17:56;;;;;;;;;11.00;10.00;;;;;-147.17;100.00;-15917.19;4978576;28;51368;-48
2023/04/16 03:20:22;;;;;;;;;14.00;11.25;;;;;-147.17;100.00;-15917.19;4979310;28;51345;-50
2023/04/16 03:22:47;;;;;;;;;11.25;10.00;;;;;-147.17;100.00;-15917.19;4981175;28;52531;-50
2023/04/16 03:25:13;;;;;;;;;10.50;10.25;;;;;-147.17;100.00;-15917.19;4980157;28;51079;-48
2023/04/16 03:27:39;;;;;;;;;11.75;10.50;;;;;-147.17;100.00;-15917.19;4978699;28;52680;-52
2023/04/16 03:30:10;;;;;;;;;10.00;10.00;;;;;-147.17;100.00;-15917.19;4976863;28;51218;-52
2023/04/16 03:32:36;;;;;;;;;15.00;12.75;;;;;-147.17;100.00;-15917.19;4980673;28;51711;-53
2023/04/16 03:35:02;;;;;;;;;12.75;10.75;;;;;-147.17;100.00;-15917.19;4981176;28;51570;-52
2023/04/16 03:37:27;;;;;;;;;10.25;9.50;;;;;-147.17;100.00;-15917.19;4978352;28;51231;-49
2023/04/16 03:39:52;;;;;;;;;15.00;13.25;;;;;-147.17;100.00;-15917.19;4978963;28;51255;-53
2023/04/16 03:42:18;;;;;;;;;10.75;10.25;;;;;-147.17;100.00;-15917.19;4979087;28;51775;-52
2023/04/16 03:44:43;;;;;;;;;10.50;9.75;;;;;-147.17;100.00;-15917.19;4980856;28;53286;-52
2023/04/16 03:47:09;;;;;;;;;12.75;12.75;;;;;-147.17;100.00;-15917.19;4977826;28;51154;-53
2023/04/16 03:49:34;;;;;;;;;8.75;8.75;;;;;-147.17;100.00;-15917.19;4977592;28;52694;-51
2023/04/16 03:52:03;;;;;;;;;13.50;11.75;;;;;-147.17;100.00;-15917.19;4978253;28;51760;-50
2023/04/16 03:54:28;;;;;;;;;15.25;13.00;;;;;-147.17;100.00;-15917.19;4978605;28;51194;-52
2023/04/16 03:56:53;;;;;;;;;12.00;10.75;;;;;-147.17;100.00;-15917.19;4978692;28;51744;-53
2023/04/16 03:59:19;;;;;;;;;11.25;10.25;;;;;-147.17;100.00;-15917.19;4978054;28;51256;-50
2023/04/16 04:01:44;;;;;;;;;14.50;14.00;;;;;-147.17;100.00;-15917.19;4979470;28;51204;-52
2023/04/16 04:04:09;;;;;;;;;13.50;12.00;;;;;-147.17;100.00;-15917.19;4977170;28;51492;-49
2023/04/16 04:06:35;;;;;;;;;10.75;10.25;;;;;-147.17;100.00;-15917.19;4978527;28;51379;-48
2023/04/16 04:09:00;;;;;;;;;13.50;13.50;;;;;-147.17;100.00;-15917.19;4979190;28;51295;-52
2023/04/16 04:11:26;;;;;;;;;13.75;13.00;;;;;-147.17;100.00;-15917.19;4980252;28;51524;-49
2023/04/16 04:13:51;;;;;;;;;12.50;10.50;;;;;-147.17;100.00;-15917.19;4979356;28;51412;-52
2023/04/16 04:16:16;;;;;;;;;14.00;12.25;;;;;-147.17;100.00;-15917.19;4978023;28;51956;-48
2023/04/16 04:18:42;;;;;;;;;13.00;12.25;;;;;-147.17;100.00;-15917.19;4964358;28;51245;-49
2023/04/16 04:21:08;;;;;;;;;13.75;11.50;;;;;-147.17;100.00;-15917.19;4977959;28;51256;-52
2023/04/16 04:23:34;;;;;;;;;13.25;13.25;;;;;-147.17;100.00;-15917.19;4978146;28;51310;-51
2023/04/16 04:26:02;;;;;;;;;14.25;13.50;;;;;-147.17;100.00;-15917.19;4976787;28;51142;-48
2023/04/16 04:28:31;;;;;;;;;15.75;15.50;;;;;-147.17;100.00;-15917.19;4977278;28;51640;-51
2023/04/16 04:30:57;;;;;;;;;21.75;20.50;;;;;-147.17;100.00;-15917.19;4978094;28;51430;-49
2023/04/16 04:33:23;;;;;;;;;20.50;17.75;;;;;-147.17;100.00;-15917.19;4978255;28;51088;-52
2023/04/16 04:35:49;;;;;;;;;19.75;18.00;;;;;-147.17;100.00;-15917.19;4978985;28;51706;-51
2023/04/16 04:38:18;;;;;;;;;19.25;17.00;;;;;-147.17;100.00;-15917.19;4976245;28;51264;-53
2023/04/16 04:40:43;;;;;;;;;16.25;14.75;;;;;-147.17;100.00;-15917.19;4962215;28;51411;-53
2023/04/16 04:43:09;;;;;;;;;21.25;19.75;;;;;-147.17;100.00;-15917.19;4978663;28;51441;-49
2023/04/16 04:45:34;;;;;;;;;25.00;20.50;;;;;-147.17;100.00;-15917.19;4978233;28;55639;-49
2023/04/16 04:48:00;;;;;;;;;24.25;22.25;;;;;-147.17;100.00;-15917.19;4978383;28;52534;-53
2023/04/16 04:50:25;;;;;;;;;28.25;26.00;;;;;-147.17;100.00;-15917.19;4979100;28;51372;-52
2023/04/16 04:52:50;;;;;;;;;24.00;22.50;;;;;-147.17;100.00;-15917.19;4977531;28;51174;-48
2023/04/16 04:55:16;;;;;;;;;26.25;24.25;;;;;-147.17;100.00;-15917.19;4977831;28;53208;-52
2023/04/16 04:57:41;;;;;;;;;24.25;18.50;;;;;-147.17;100.00;-15917.19;4977946;28;51926;-48
2023/04/16 05:00:07;;;;;;;;;30.00;25.75;;;;;-147.17;100.00;-15917.19;4976453;28;51359;-52
2023/04/16 05:02:33;;;;;;;;;23.50;21.50;;;;;-147.17;100.00;-15917.19;4976834;28;51501;-51
2023/04/16 05:04:58;;;;;;;;;16.00;13.00;;;;;-147.17;100.00;-15917.19;4978927;28;52382;-52
2023/04/16 05:07:24;;;;;;;;;25.00;22.25;;;;;-147.17;100.00;-15917.19;4976895;28;51250;-49
2023/04/16 05:09:49;;;;;;;;;28.50;27.75;;;;;-147.17;100.00;-15917.19;4978682;28;51338;-50
2023/04/16 05:12:15;;;;;;;;;28.75;26.00;;;;;-147.17;100.00;-15917.19;4977250;28;51379;-51
2023/04/16 05:14:40;;;;;;;;;34.50;32.50;;;;;-147.17;100.00;-15917.19;4975974;28;52889;-49
2023/04/16 05:17:06;;;;;;;;;28.75;26.50;;;;;-147.17;100.00;-15917.19;4977416;28;51297;-50
2023/04/16 05:19:32;;;;;;;;;28.50;24.50;;;;;-147.17;100.00;-15917.19;4976094;28;51299;-52
2023/04/16 05:21:57;;;;;;;;;29.00;26.00;;;;;-147.17;100.00;-15917.19;4977744;28;51247;-48
2023/04/16 05:24:23;;;;;;;;;28.25;23.25;;;;;-147.17;100.00;-15917.19;4964660;28;51197;-50
2023/04/16 05:26:48;;;;;;;;;33.00;30.25;;;;;-147.17;100.00;-15917.19;4977132;28;51502;-50
2023/04/16 05:29:14;;;;;;;;;24.75;23.50;;;;;-147.17;100.00;-15917.19;4975944;28;51303;-51
2023/04/16 05:31:39;;;;;;;;;26.25;25.00;;;;;-147.17;100.00;-15917.19;4978139;28;51561;-50
2023/04/16 05:34:05;;;;;;;;;27.50;26.25;;;;;-147.17;100.00;-15917.19;4977997;28;51841;-52
2023/04/16 05:36:30;;;;;;;;;31.50;29.75;;;;;-147.17;100.00;-15917.19;4977864;28;51095;-53
2023/04/16 05:38:55;;;;;;;;;29.50;25.50;;;;;-147.17;100.00;-15917.19;4976528;28;51418;-53
2023/04/16 05:41:21;;;;;;;;;30.75;27.50;;;;;-147.17;100.00;-15917.19;4986506;28;51239;-51
2023/04/16 05:43:46;;;;;;;;;37.50;36.25;;;;;-147.17;100.00;-15917.19;5006319;28;51703;-53
2023/04/16 05:46:12;;;;;;;;;32.75;29.00;;;;;-147.17;100.00;-15917.19;4988726;28;51182;-53
2023/04/16 05:48:37;;;;;;;;;41.50;33.75;;;;;-147.17;100.00;-15917.19;4985805;28;51025;-51
2023/04/16 05:51:02;;;;;;;;;33.25;30.75;;;;;-147.17;100.00;-15917.19;4986724;28;51033;-53
2023/04/16 05:53:28;;;;;;;;;33.50;30.00;;;;;-147.17;100.00;-15917.19;4983557;28;52090;-50
2023/04/16 05:55:53;;;;;;;;;31.25;28.75;;;;;-147.17;100.00;-15917.19;4970121;28;51212;-52
2023/04/16 05:58:18;;;;;;;;;29.00;27.50;;;;;-147.17;100.00;-15917.19;4990832;28;50966;-51
2023/04/16 06:00:44;;;;;;;;;30.75;26.75;;;;;-147.17;100.00;-15917.19;4997042;28;51283;-55
2023/04/16 06:03:09;;;;;;;;;24.25;21.00;;;;;-147.17;100.00;-15917.19;4989015;28;52296;-51
2023/04/16 06:05:35;;;;;;;;;31.50;30.75;;;;;-147.17;100.00;-15917.19;4991218;28;51152;-48
2023/04/16 06:08:00;;;;;;;;;27.50;27.25;;;;;-147.17;100.00;-15917.19;4991770;28;50904;-52
2023/04/16 06:10:26;;;;;;;;;32.00;30.25;;;;;-147.17;100.00;-15917.19;4983076;28;51398;-48
2023/04/16 06:12:51;;;;;;;;;36.75;34.50;;;;;-147.17;100.00;-15917.19;4998615;28;51619;-55
2023/04/16 06:15:16;;;;;;;;;33.75;31.75;;;;;-147.17;100.00;-15917.19;4986748;28;50912;-53
2023/04/16 06:17:42;;;;;;;;;40.25;33.00;;;;;-147.17;100.00;-15917.19;4988363;28;50950;-48
2023/04/16 06:20:07;;;;;;;;;37.50;33.50;;;;;-147.17;100.00;-15917.19;5002098;28;51279;-50
2023/04/16 06:22:33;;;;;;;;;34.25;32.00;;;;;-147.17;100.00;-15917.19;4994151;28;51980;-49
2023/04/16 06:24:58;;;;;;;;;35.25;31.75;;;;;-147.17;100.00;-15917.19;4990646;28;51151;-49
2023/04/16 06:27:24;;;;;;;;;36.75;33.50;;;;;-147.17;100.00;-15917.19;4990046;28;51297;-50
2023/04/16 06:29:50;;;;;;;;;37.50;30.75;;;;;-147.17;100.00;-15917.19;4984118;28;51161;-51
2023/04/16 06:32:16;;;;;;;;;38.00;34.25;;;;;-147.17;100.00;-15917.19;4982165;28;52384;-48
2023/04/16 06:34:41;;;;;;;;;40.50;33.75;;;;;-147.17;100.00;-15917.19;4994784;28;51120;-49
2023/04/16 06:37:07;;;;;;;;;38.50;31.50;;;;;-147.17;100.00;-15917.19;4989464;28;51128;-52
2023/04/16 06:39:32;;;;;;;;;41.25;35.25;;;;;-147.17;100.00;-15917.19;4990386;28;51118;-52
2023/04/16 06:41:57;;;;;;;;;40.50;35.00;;;;;-147.17;100.00;-15917.19;4991093;28;51049;-53
2023/04/16 06:44:23;;;;;;;;;34.00;30.50;;;;;-147.17;100.00;-15917.19;4990502;28;51111;-51
2023/04/16 06:46:49;;;;;;;;;34.00;32.00;;;;;-147.17;100.00;-15917.19;4965128;28;51274;-52
2023/04/16 06:49:14;;;;;;;;;39.50;34.00;;;;;-147.17;100.00;-15917.19;4970182;28;51090;-48
2023/04/16 06:51:41;;;;;;;;;39.00;35.25;;;;;-147.17;100.00;-15917.19;4990326;28;51288;-53
2023/04/16 06:54:06;;;;;;;;;31.75;30.00;;;;;-147.17;100.00;-15917.19;4991131;28;51076;-48
2023/04/16 06:56:32;;;;;;;;;35.25;32.75;;;;;-147.17;100.00;-15917.19;4994281;28;51043;-51
2023/04/16 06:58:59;;;;;;;;;30.50;27.00;;;;;-147.17;100.00;-15917.19;4975233;28;51097;-51
2023/04/16 07:01:25;;;;;;;;;34.00;31.75;;;;;-147.17;100.00;-15917.19;4985977;28;51275;-50
2023/04/16 07:03:50;;;;;;;;;36.00;33.25;;;;;-147.17;100.00;-15917.19;4991913;28;51079;-49
2023/04/16 07:06:16;;;;;;;;;32.75;29.75;;;;;-147.17;100.00;-15917.19;4979104;28;51699;-47
2023/04/16 07:08:41;;;;;;;;;33.00;30.25;;;;;-147.17;100.00;-15917.19;4986463;28;51154;-47
2023/04/16 07:11:06;;;;;;;;;34.75;32.75;;;;;-147.17;100.00;-15917.19;4992729;28;51687;-47
2023/04/16 07:13:31;;;;;;;;;28.00;26.25;;;;;-147.17;100.00;-15917.19;5002530;28;51184;-47
2023/04/16 07:16:02;;;;;;;;;35.00;30.75;;;;;-147.17;100.00;-15917.19;4990155;28;51137;-51
2023/04/16 07:18:28;;;;;;;;;32.75;32.25;;;;;-147.17;100.00;-15917.19;4985791;28;51288;-50
2023/04/16 07:20:53;;;;;;;;;32.00;30.50;;;;;-147.17;100.00;-15917.19;4975867;28;51563;-52
2023/04/16 07:23:19;;;;;;;;;38.25;33.50;;;;;-147.17;100.00;-15917.19;4994932;28;51115;-51
2023/04/16 07:25:44;;;;;;;;;40.50;33.50;;;;;-147.17;100.00;-15917.19;4989712;28;51236;-49
2023/04/16 07:28:10;;;;;;;;;36.75;31.75;;;;;-147.17;100.00;-15915.72;4984956;28;51095;-48
2023/04/16 07:30:35;;;;;;;;;35.25;32.50;;;;;-147.17;100.00;-15420.25;4993099;28;51651;-56
2023/04/16 07:33:04;;;;;;;;;34.50;30.50;;;;;-147.17;100.00;-15172.50;4988920;28;51142;-51
2023/04/16 07:35:30;;;;;;;;;35.25;30.25;;;;;-147.17;100.00;-13685.63;4981400;28;51097;-50
2023/04/16 07:37:56;;;;;;;;;35.50;32.00;;;;;-147.17;100.00;-12446.13;4978171;28;51344;-51
2023/04/16 07:40:23;;;;;;;;;35.50;31.00;;;;;-147.17;100.00;-8973.38;4985335;28;51847;-52
2023/04/16 07:42:48;;;;;;;;;32.25;30.00;;;;;-147.17;100.00;-7732.34;4984372;28;51221;-52
2023/04/16 07:45:14;;;;;;;;;36.75;32.50;;;;;-147.17;100.00;-6242.59;4989718;28;51388;-51
2023/04/16 07:47:39;;;;;;;;;28.75;26.50;;;;;-147.17;100.00;-4255.34;4985242;28;51294;-51
2023/04/16 07:50:05;;;;;;;;;32.00;29.25;;;;;-147.17;100.00;-1023.88;4985478;28;52689;-48
2023/04/16 07:52:31;;;;;;;;;33.25;31.50;;;;;-147.17;100.00;-526.47;4977633;28;51202;-52
2023/04/16 07:54:56;;;;;;;;;25.50;24.75;;;;;-147.17;100.00;3454.97;4998787;28;50978;-52
2023/04/16 07:57:21;;;;;;;;;27.25;27.00;;;;;-147.17;100.00;5696.34;4994123;28;51319;-52
2023/04/16 07:59:47;;;;;;;;;37.00;33.25;;;;;-147.17;100.00;5945.44;4985824;28;51204;-51
2023/04/16 08:02:15;;;;;;;;;29.50;29.00;;;;;-147.17;100.00;7689.75;4980711;28;51295;-51
2023/04/16 08:04:43;;;;;;;;;25.25;23.75;;;;;-147.17;100.00;6692.91;5001507;28;51366;-51
2023/04/16 08:07:09;;;;;;;;;39.25;33.00;;;;;-147.17;100.00;9185.47;4989843;28;51571;-51
2023/04/16 08:09:35;;;;;;;;;27.50;26.25;;;;;-147.17;100.00;11679.66;4967872;28;51367;-51
2023/04/16 08:12:01;;;;;;;;;22.25;21.50;;;;;-147.17;100.00;15423.94;4992612;28;51035;-50
2023/04/16 08:14:27;;;;;;;;;27.25;26.00;;;;;-147.17;100.00;18921.88;4993306;28;51072;-53
2023/04/16 08:16:53;;;;;;;;;25.00;24.50;;;;;-147.17;100.00;19421.84;4982515;28;51356;-54
2023/04/16 08:19:18;;;;;;;;;22.00;21.25;;;;;-147.17;100.00;19421.84;4981037;28;51103;-52
2023/04/16 08:21:44;;;;;;;;;24.00;23.25;;;;;-147.17;100.00;20672.00;4984720;28;51062;-51
2023/04/16 08:24:14;;;;;;;;;24.33;21.00;;;;;-147.17;100.00;22939.00;4964241;28;51103;-51
2023/04/16 08:26:40;;;;;;;;;23.00;20.75;;;;;-147.17;100.00;27073.75;4990199;28;51311;-50
2023/04/16 08:29:06;;;;;;;;;27.75;24.00;;;;;-147.17;100.00;33744.75;4979105;28;52053;-52
2023/04/16 08:31:32;;;;;;;;;22.67;21.67;;;;;-147.17;100.00;33631.06;4987345;28;51464;-48
2023/04/16 08:34:00;;;;;;;;;28.75;26.00;;;;;-147.17;100.00;33827.06;4978266;28;51256;-52
2023/04/16 08:36:27;;;;;;;;;23.00;22.00;;;;;-147.17;100.00;35654.50;4986338;28;51015;-49
2023/04/16 08:38:56;;;;;;;;;25.25;22.00;;;;;-147.17;100.00;35603.53;4978203;28;50927;-50
2023/04/16 08:41:26;;;;;;;;;25.33;24.00;;;;;-147.17;100.00;34683.81;4990191;28;51332;-48
2023/04/16 08:43:57;;;;;;;;;26.50;24.25;;;;;-147.17;100.00;36182.13;4975616;28;52343;-50
2023/04/16 08:46:25;;;;;;;;;22.33;22.33;;;;;-147.17;100.00;36737.25;4981434;28;51231;-50
2023/04/16 08:48:55;;;;;;;;;22.67;21.33;;;;;-147.17;100.00;37278.75;4974626;28;52262;-50
2023/04/16 08:51:37;;;;;;;;;21.67;21.33;;;;;-147.17;100.00;37212.03;4956375;28;51428;-51
2023/04/16 08:54:11;;;;;;;;;21.33;20.00;;;;;-147.17;100.00;37879.16;4969305;28;51299;-51
2023/04/16 08:56:43;;;;;;;;;23.33;22.00;;;;;-147.17;100.00;38444.38;4969549;28;51378;-47
2023/04/16 08:59:10;;;;;;;;;20.67;20.00;;;;;-147.17;100.00;39280.53;4971235;28;51195;-53
2023/04/16 09:01:40;;;;;;;;;22.33;21.00;;;;;-147.17;100.00;39563.22;4963695;28;51211;-49
2023/04/16 09:04:15;;;;;;;;;20.00;19.33;;;;;-147.17;100.00;40487.97;4963285;28;52138;-49
2023/04/16 09:06:42;;;;;;;;;19.33;17.67;;;;;-147.17;100.00;40240.56;4967565;28;51266;-48
2023/04/16 09:09:10;;;;;;;;;25.00;22.75;;;;;-147.17;100.00;39865.56;4987911;28;53121;-52
2023/04/16 09:11:35;;;;;;;;;21.00;20.33;;;;;-147.17;100.00;39783.09;4969833;28;51188;-46
2023/04/16 09:14:02;;;;;;;;;22.33;21.00;;;;;-147.17;100.00;40293.59;4973811;28;51063;-52
2023/04/16 09:16:32;;;;;;;;;21.67;20.00;;;;;-147.17;100.00;40356.41;4958097;28;51310;-50
2023/04/16 09:18:58;;;;;;;;;21.67;20.00;;;;;-147.17;100.00;40107.06;4973343;28;51797;-50
2023/04/16 09:24:03;;;;;;;;;24.67;21.67;;;;;-147.17;100.00;39845.94;5183981;23;51155;-58
2023/04/16 09:26:29;;;;;;;;;19.33;18.67;;;;;-147.17;100.00;39468.97;4991813;28;51109;-58
2023/04/16 09:28:54;;;;;;;;;20.00;20.00;;;;;-147.17;100.00;39681.00;4982065;28;51079;-58
2023/04/16 09:31:20;;;;;;;;;18.00;18.00;;;;;-147.17;100.00;39504.31;4988440;28;51061;-57
2023/04/16 09:34:07;;;;;;;;;21.00;19.33;;;;;-147.17;100.00;39463.09;4984718;28;51310;-58
2023/04/16 09:36:33;;;;;;;;;23.33;22.33;;;;;-147.17;100.00;39757.56;4985251;28;51314;-57
2023/04/16 09:39:00;;;;;;;;;21.00;20.00;;;;;-147.17;100.00;39895.00;4987985;28;51807;-57
2023/04/16 09:41:29;;;;;;;;;22.00;19.00;;;;;-147.17;100.00;39494.50;4989258;28;51242;-57
2023/04/16 09:43:58;;;;;;;;;20.00;18.33;;;;;-147.17;100.00;38925.22;4981475;28;51210;-59
2023/04/16 09:46:28;;;;;;;;;16.33;16.00;;;;;-147.17;100.00;37898.78;4980953;28;51461;-57
2023/04/16 09:48:55;;;;;;;;;17.67;16.33;;;;;-147.17;100.00;37176.72;4988863;28;51453;-57
2023/04/16 09:51:21;;;;;;;;;19.67;18.67;;;;;-147.17;100.00;37404.31;4989530;28;51154;-54
2023/04/16 09:53:50;;;;;;;;;19.67;18.67;;;;;-147.17;100.00;37459.25;4985344;28;51602;-55
2023/04/16 09:56:15;;;;;;;;;18.00;17.33;;;;;-147.17;100.00;37133.56;4987047;28;51346;-55
2023/04/16 09:58:41;;;;;;;;;14.67;14.00;;;;;-147.17;100.00;36725.50;4991296;28;51723;-55
2023/04/16 10:01:10;;;;;;;;;19.33;17.67;;;;;-147.17;100.00;36984.44;4993592;28;51144;-59
2023/04/16 10:03:38;;;;;;;;;19.33;19.00;;;;;-147.17;100.00;36474.38;4987184;28;51141;-56
2023/04/16 10:06:07;;;;;;;;;15.00;15.00;;;;;-147.17;100.00;36213.50;4990193;28;51372;-55
2023/04/16 10:08:33;;;;;;;;;15.67;15.33;;;;;-147.17;100.00;35717.28;4983755;28;52415;-56
2023/04/16 10:10:58;;;;;;;;;15.67;14.33;;;;;-147.17;100.00;36346.88;4991939;28;51112;-56
2023/04/16 10:13:26;;;;;;;;;16.33;16.33;;;;;-147.17;100.00;36539.13;4975245;28;51470;-55
2023/04/16 10:15:55;;;;;;;;;15.33;15.00;;;;;-147.17;100.00;36803.97;4997275;28;51378;-57
2023/04/16 10:18:21;;;;;;;;;13.00;13.00;;;;;-147.17;100.00;37372.91;5003475;28;52884;-56
2023/04/16 10:20:47;;;;;;;;;15.00;15.00;;;;;-147.17;100.00;37749.66;4993298;28;51504;-56
2023/04/16 10:23:13;;;;;;;;;15.33;14.33;;;;;-147.17;100.00;37834.03;4995641;28;51152;-58
2023/04/16 10:25:41;;;;;;;;;15.00;14.33;;;;;-147.17;100.00;37757.50;5009908;28;51009;-57
2023/04/16 10:28:07;;;;;;;;;18.00;17.00;;;;;-147.17;100.00;37525.97;5004218;28;52608;-56
2023/04/16 10:30:33;;;;;;;;;15.00;14.33;;;;;-147.17;100.00;37675.09;5008939;28;51055;-58
2023/04/16 10:33:00;;;;;;;;;12.00;12.00;;;;;-147.17;100.00;38275.59;5009725;28;51524;-57
2023/04/16 10:35:25;;;;;;;;;17.33;14.67;;;;;-147.17;100.00;38823.16;5025807;28;51200;-56
2023/04/16 10:37:56;;;;;;;;;13.33;13.33;;;;;-147.17;100.00;39394.38;5005846;28;51075;-57
2023/04/16 10:40:26;;;;;;;;;14.67;13.67;;;;;-147.17;100.00;39496.47;5009560;28;51814;-56
2023/04/16 10:42:56;;;;;;;;;12.33;12.00;;;;;-147.17;100.00;39989.25;5005037;28;51223;-55
2023/04/16 10:45:36;;;;;;;;;11.00;11.00;;;;;-147.17;100.00;40515.47;5000439;28;51160;-57
2023/04/16 10:48:08;;;;;;;;;14.67;13.00;;;;;-147.17;100.00;40399.63;5004861;28;51224;-55
2023/04/16 10:50:35;;;;;;;;;13.00;13.00;;;;;-147.17;100.00;40607.75;4994419;28;50987;-56